sensor_id;sensor_type;location;lat;lon;timestamp;pressure;altitude;pressure_sealevel;temperature;humidity
75594;BME280;64176;49.156;7.810;2024-01-15T00:01:56;98321.03;;;-3.77;100.00
75594;BME280;64176;49.156;7.810;2024-01-15T00:04:41;98325.72;;;-3.84;100.00
75594;BME280;64176;49.156;7.810;2024-01-15T00:07:27;98324.06;;;-3.84;100.00
75594;BME280;64176;49.156;7.810;2024-01-15T00:10:14;98325.50;;;-3.71;100.00
75594;BME280;64176;49.156;7.810;2024-01-15T00:13:03;98326.66;;;-3.82;100.00
75594;BME280;64176;49.156;7.810;2024-01-15T00:15:47;98315.13;;;-3.77;100.00
75594;BME280;64176;49.156;7.810;2024-01-15T00:18:31;98319.00;;;-3.66;100.00
75594;BME280;64176;49.156;7.810;2024-01-15T00:21:15;98309.94;;;-3.80;100.00
75594;BME280;64176;49.156;7.810;2024-01-15T00:23:59;98305.41;;;-3.87;100.00
75594;BME280;64176;49.156;7.810;2024-01-15T00:26:43;98300.97;;;-3.74;100.00
75594;BME280;64176;49.156;7.810;2024-01-15T00:29:32;98297.34;;;-3.61;100.00
75594;BME280;64176;49.156;7.810;2024-01-15T00:32:20;98300.97;;;-3.74;100.00
75594;BME280;64176;49.156;7.810;2024-01-15T00:35:04;98283.09;;;-3.78;100.00
75594;BME280;64176;49.156;7.810;2024-01-15T00:37:49;98272.78;;;-3.83;100.00
75594;BME280;64176;49.156;7.810;2024-01-15T00:40:38;98273.09;;;-3.77;100.00
75594;BME280;64176;49.156;7.810;2024-01-15T00:43:22;98272.78;;;-3.83;100.00
75594;BME280;64176;49.156;7.810;2024-01-15T00:46:06;98280.78;;;-3.74;100.00
75594;BME280;64176;49.156;7.810;2024-01-15T00:48:54;98273.28;;;-3.72;100.00
75594;BME280;64176;49.156;7.810;2024-01-15T00:51:41;98261.06;;;-4.00;100.00
75594;BME280;64176;49.156;7.810;2024-01-15T00:54:26;98271.44;;;-3.76;100.00
75594;BME280;64176;49.156;7.810;2024-01-15T00:57:10;98278.81;;;-3.61;100.00
75594;BME280;64176;49.156;7.810;2024-01-15T00:59:56;98277.44;;;-3.73;100.00
75594;BME280;64176;49.156;7.810;2024-01-15T01:02:41;98261.38;;;-3.75;100.00
75594;BME280;64176;49.156;7.810;2024-01-15T01:05:25;98263.88;;;-3.75;100.00
75594;BME280;64176;49.156;7.810;2024-01-15T01:08:09;98260.66;;;-3.72;100.00
75594;BME280;64176;49.156;7.810;2024-01-15T01:10:55;98258.19;;;-3.71;100.00
75594;BME280;64176;49.156;7.810;2024-01-15T01:13:39;98260.19;;;-3.63;100.00
75594;BME280;64176;49.156;7.810;2024-01-15T01:16:23;98260.72;;;-3.71;100.00
75594;BME280;64176;49.156;7.810;2024-01-15T01:19:10;98271.03;;;-3.66;100.00
75594;BME280;64176;49.156;7.810;2024-01-15T01:21:57;98267.97;;;-3.78;100.00
75594;BME280;64176;49.156;7.810;2024-01-15T01:24:41;98258.84;;;-3.75;100.00
75594;BME280;64176;49.156;7.810;2024-01-15T01:27:25;98251.97;;;-3.59;100.00
75594;BME280;64176;49.156;7.810;2024-01-15T01:30:09;98256.44;;;-3.54;100.00
75594;BME280;64176;49.156;7.810;2024-01-15T01:32:53;98253.22;;;-3.69;100.00
75594;BME280;64176;49.156;7.810;2024-01-15T01:35:39;98246.44;;;-3.70;100.00
75594;BME280;64176;49.156;7.810;2024-01-15T01:38:27;98253.47;;;-3.63;100.00
75594;BME280;64176;49.156;7.810;2024-01-15T01:41:11;98256.47;;;-3.72;100.00
75594;BME280;64176;49.156;7.810;2024-01-15T01:43:55;98256.00;;;-3.63;100.00
75594;BME280;64176;49.156;7.810;2024-01-15T01:46:41;98255.34;;;-3.59;100.00
75594;BME280;64176;49.156;7.810;2024-01-15T01:49:28;98261.81;;;-3.46;100.00
75594;BME280;64176;49.156;7.810;2024-01-15T01:52:13;98261.50;;;-3.54;100.00
75594;BME280;64176;49.156;7.810;2024-01-15T01:55:03;98269.66;;;-3.40;100.00
75594;BME280;64176;49.156;7.810;2024-01-15T01:57:51;98263.63;;;-3.44;100.00
75594;BME280;64176;49.156;7.810;2024-01-15T02:00:37;98260.28;;;-3.43;100.00
75594;BME280;64176;49.156;7.810;2024-01-15T02:03:25;98247.66;;;-3.43;100.00
75594;BME280;64176;49.156;7.810;2024-01-15T02:06:10;98248.31;;;-3.47;100.00
75594;BME280;64176;49.156;7.810;2024-01-15T02:08:57;98251.97;;;-3.40;100.00
75594;BME280;64176;49.156;7.810;2024-01-15T02:11:45;98251.38;;;-3.54;100.00
75594;BME280;64176;49.156;7.810;2024-01-15T02:14:32;98237.13;;;-3.52;100.00
75594;BME280;64176;49.156;7.810;2024-01-15T02:17:18;98236.50;;;-3.48;100.00
75594;BME280;64176;49.156;7.810;2024-01-15T02:20:05;98243.06;;;-3.51;100.00
75594;BME280;64176;49.156;7.810;2024-01-15T02:22:52;98223.66;;;-3.52;100.00
75594;BME280;64176;49.156;7.810;2024-01-15T02:25:45;98227.31;;;-3.46;100.00
75594;BME280;64176;49.156;7.810;2024-01-15T02:28:29;98235.03;;;-3.43;100.00
75594;BME280;64176;49.156;7.810;2024-01-15T02:31:17;98244.22;;;-3.45;100.00
75594;BME280;64176;49.156;7.810;2024-01-15T02:34:01;98230.81;;;-3.42;100.00
75594;BME280;64176;49.156;7.810;2024-01-15T02:36:47;98241.06;;;-3.39;100.00
75594;BME280;64176;49.156;7.810;2024-01-15T02:39:36;98240.56;;;-3.32;100.00
75594;BME280;64176;49.156;7.810;2024-01-15T02:42:20;98234.50;;;-3.36;100.00
75594;BME280;64176;49.156;7.810;2024-01-15T02:45:04;98237.03;;;-3.36;100.00
75594;BME280;64176;49.156;7.810;2024-01-15T02:47:49;98233.88;;;-3.30;100.00
75594;BME280;64176;49.156;7.810;2024-01-15T02:50:36;98232.22;;;-3.30;100.00
75594;BME280;64176;49.156;7.810;2024-01-15T02:53:19;98230.25;;;-3.37;100.00
75594;BME280;64176;49.156;7.810;2024-01-15T02:56:07;98234.09;;;-3.25;100.00
75594;BME280;64176;49.156;7.810;2024-01-15T02:58:51;98227.16;;;-3.30;100.00
75594;BME280;64176;49.156;7.810;2024-01-15T03:01:35;98223.56;;;-3.15;100.00
75594;BME280;64176;49.156;7.810;2024-01-15T03:04:22;98226.31;;;-3.30;100.00
75594;BME280;64176;49.156;7.810;2024-01-15T03:07:06;98226.72;;;-3.21;100.00
75594;BME280;64176;49.156;7.810;2024-01-15T03:09:52;98216.47;;;-3.24;100.00
75594;BME280;64176;49.156;7.810;2024-01-15T03:12:36;98211.50;;;-3.22;100.00
75594;BME280;64176;49.156;7.810;2024-01-15T03:15:20;98209.94;;;-3.19;100.00
75594;BME280;64176;49.156;7.810;2024-01-15T03:18:07;98223.31;;;-3.21;100.00
75594;BME280;64176;49.156;7.810;2024-01-15T03:20:53;98219.19;;;-3.19;100.00
75594;BME280;64176;49.156;7.810;2024-01-15T03:23:40;98228.41;;;-3.01;100.00
75594;BME280;64176;49.156;7.810;2024-01-15T03:26:26;98217.94;;;-3.10;100.00
75594;BME280;64176;49.156;7.810;2024-01-15T03:29:12;98216.56;;;-3.02;100.00
75594;BME280;64176;49.156;7.810;2024-01-15T03:31:57;98217.38;;;-3.03;100.00
75594;BME280;64176;49.156;7.810;2024-01-15T03:34:40;98201.41;;;-3.02;100.00
75594;BME280;64176;49.156;7.810;2024-01-15T03:37:24;98203.66;;;-3.08;100.00
75594;BME280;64176;49.156;7.810;2024-01-15T03:40:09;98215.56;;;-3.05;100.00
75594;BME280;64176;49.156;7.810;2024-01-15T03:42:55;98209.41;;;-3.12;100.00
75594;BME280;64176;49.156;7.810;2024-01-15T03:45:39;98210.38;;;-3.08;100.00
75594;BME280;64176;49.156;7.810;2024-01-15T03:48:23;98212.38;;;-3.01;100.00
75594;BME280;64176;49.156;7.810;2024-01-15T03:51:07;98196.41;;;-3.00;100.00
75594;BME280;64176;49.156;7.810;2024-01-15T03:53:54;98196.72;;;-2.92;100.00
75594;BME280;64176;49.156;7.810;2024-01-15T03:56:38;98202.16;;;-2.83;100.00
75594;BME280;64176;49.156;7.810;2024-01-15T03:59:22;98202.34;;;-3.00;100.00
75594;BME280;64176;49.156;7.810;2024-01-15T04:02:06;98197.47;;;-2.95;100.00
75594;BME280;64176;49.156;7.810;2024-01-15T04:04:50;98193.03;;;-3.01;100.00
75594;BME280;64176;49.156;7.810;2024-01-15T04:07:34;98187.69;;;-2.87;100.00
75594;BME280;64176;49.156;7.810;2024-01-15T04:10:20;98179.53;;;-2.80;100.00
75594;BME280;64176;49.156;7.810;2024-01-15T04:13:07;98176.28;;;-2.78;100.00
75594;BME280;64176;49.156;7.810;2024-01-15T04:15:53;98173.34;;;-2.87;100.00
75594;BME280;64176;49.156;7.810;2024-01-15T04:18:37;98157.94;;;-2.93;100.00
75594;BME280;64176;49.156;7.810;2024-01-15T04:21:24;98135.88;;;-2.97;100.00
75594;BME280;64176;49.156;7.810;2024-01-15T04:24:08;98142.00;;;-2.92;100.00
75594;BME280;64176;49.156;7.810;2024-01-15T04:26:57;98143.34;;;-2.79;100.00
75594;BME280;64176;49.156;7.810;2024-01-15T04:29:41;98146.41;;;-2.86;100.00
75594;BME280;64176;49.156;7.810;2024-01-15T04:32:25;98148.19;;;-2.84;100.00
75594;BME280;64176;49.156;7.810;2024-01-15T04:35:09;98135.75;;;-2.79;100.00
75594;BME280;64176;49.156;7.810;2024-01-15T04:37:52;98135.19;;;-2.72;100.00
75594;BME280;64176;49.156;7.810;2024-01-15T04:40:36;98138.50;;;-2.73;100.00
75594;BME280;64176;49.156;7.810;2024-01-15T04:43:20;98130.50;;;-2.84;100.00
75594;BME280;64176;49.156;7.810;2024-01-15T04:46:07;98127.97;;;-2.84;100.00
75594;BME280;64176;49.156;7.810;2024-01-15T04:48:56;98132.22;;;-2.83;100.00
75594;BME280;64176;49.156;7.810;2024-01-15T04:51:40;98124.19;;;-2.73;100.00
75594;BME280;64176;49.156;7.810;2024-01-15T04:54:24;98127.84;;;-2.66;100.00
75594;BME280;64176;49.156;7.810;2024-01-15T04:57:08;98128.72;;;-2.66;100.00
75594;BME280;64176;49.156;7.810;2024-01-15T04:59:55;98149.16;;;-2.60;100.00
75594;BME280;64176;49.156;7.810;2024-01-15T05:02:41;98131.91;;;-2.70;100.00
75594;BME280;64176;49.156;7.810;2024-01-15T05:05:30;98126.94;;;-2.68;100.00
75594;BME280;64176;49.156;7.810;2024-01-15T05:08:19;98130.47;;;-2.63;100.00
75594;BME280;64176;49.156;7.810;2024-01-15T05:11:06;98131.28;;;-2.64;100.00
75594;BME280;64176;49.156;7.810;2024-01-15T05:13:50;98114.63;;;-2.59;100.00
75594;BME280;64176;49.156;7.810;2024-01-15T05:16:34;98117.84;;;-2.63;100.00
75594;BME280;64176;49.156;7.810;2024-01-15T05:19:18;98095.25;;;-2.59;100.00
75594;BME280;64176;49.156;7.810;2024-01-15T05:22:10;98113.13;;;-2.54;100.00
75594;BME280;64176;49.156;7.810;2024-01-15T05:24:54;98111.75;;;-2.46;100.00
75594;BME280;64176;49.156;7.810;2024-01-15T05:27:38;98104.31;;;-2.41;100.00
75594;BME280;64176;49.156;7.810;2024-01-15T05:30:21;98082.03;;;-2.51;100.00
75594;BME280;64176;49.156;7.810;2024-01-15T05:33:05;98093.72;;;-2.55;100.00
75594;BME280;64176;49.156;7.810;2024-01-15T05:35:51;98096.34;;;-2.52;100.00
75594;BME280;64176;49.156;7.810;2024-01-15T05:38:35;98103.06;;;-2.52;100.00
75594;BME280;64176;49.156;7.810;2024-01-15T05:41:19;98098.66;;;-2.58;100.00
75594;BME280;64176;49.156;7.810;2024-01-15T05:44:03;98108.97;;;-2.52;100.00
75594;BME280;64176;49.156;7.810;2024-01-15T05:46:48;98099.84;;;-2.48;100.00
75594;BME280;64176;49.156;7.810;2024-01-15T05:49:32;98098.25;;;-2.46;100.00
75594;BME280;64176;49.156;7.810;2024-01-15T05:52:18;98099.22;;;-2.43;100.00
75594;BME280;64176;49.156;7.810;2024-01-15T05:55:07;98093.13;;;-2.48;100.00
75594;BME280;64176;49.156;7.810;2024-01-15T05:57:51;98091.34;;;-2.50;100.00
75594;BME280;64176;49.156;7.810;2024-01-15T06:00:40;98085.53;;;-2.48;100.00
75594;BME280;64176;49.156;7.810;2024-01-15T06:03:27;98083.41;;;-2.37;100.00
75594;BME280;64176;49.156;7.810;2024-01-15T06:06:13;98085.88;;;-2.39;100.00
75594;BME280;64176;49.156;7.810;2024-01-15T06:09:00;98081.63;;;-2.40;100.00
75594;BME280;64176;49.156;7.810;2024-01-15T06:11:49;98084.34;;;-2.35;100.00
75594;BME280;64176;49.156;7.810;2024-01-15T06:14:36;98080.88;;;-2.37;100.00
75594;BME280;64176;49.156;7.810;2024-01-15T06:17:20;98078.34;;;-2.37;100.00
75594;BME280;64176;49.156;7.810;2024-01-15T06:20:05;98090.94;;;-2.39;100.00
75594;BME280;64176;49.156;7.810;2024-01-15T06:22:49;98080.28;;;-2.30;100.00
75594;BME280;64176;49.156;7.810;2024-01-15T06:25:36;98071.63;;;-2.37;100.00
75594;BME280;64176;49.156;7.810;2024-01-15T06:28:20;98079.28;;;-2.35;100.00
75594;BME280;64176;49.156;7.810;2024-01-15T06:31:07;98078.16;;;-2.43;100.00
75594;BME280;64176;49.156;7.810;2024-01-15T06:33:53;98066.44;;;-2.40;100.00
75594;BME280;64176;49.156;7.810;2024-01-15T06:36:37;98063.78;;;-2.43;100.00
75594;BME280;64176;49.156;7.810;2024-01-15T06:39:21;98066.69;;;-2.34;100.00
75594;BME280;64176;49.156;7.810;2024-01-15T06:42:05;98071.81;;;-2.32;100.00
75594;BME280;64176;49.156;7.810;2024-01-15T06:44:49;98069.97;;;-2.36;100.00
75594;BME280;64176;49.156;7.810;2024-01-15T06:47:33;98073.47;;;-2.33;100.00
75594;BME280;64176;49.156;7.810;2024-01-15T06:50:17;98067.59;;;-2.32;100.00
75594;BME280;64176;49.156;7.810;2024-01-15T06:53:03;98066.91;;;-2.28;100.00
75594;BME280;64176;49.156;7.810;2024-01-15T06:55:50;98067.81;;;-2.26;100.00
75594;BME280;64176;49.156;7.810;2024-01-15T06:58:35;98085.19;;;-2.35;100.00
75594;BME280;64176;49.156;7.810;2024-01-15T07:01:21;98082.59;;;-2.36;100.00
75594;BME280;64176;49.156;7.810;2024-01-15T07:04:05;98080.94;;;-2.36;100.00
75594;BME280;64176;49.156;7.810;2024-01-15T07:06:51;98069.22;;;-2.34;100.00
75594;BME280;64176;49.156;7.810;2024-01-15T07:09:35;98065.66;;;-2.39;100.00
75594;BME280;64176;49.156;7.810;2024-01-15T07:12:20;98070.34;;;-2.26;100.00
75594;BME280;64176;49.156;7.810;2024-01-15T07:15:04;98064.25;;;-2.31;100.00
75594;BME280;64176;49.156;7.810;2024-01-15T07:17:53;98077.25;;;-2.22;100.00
75594;BME280;64176;49.156;7.810;2024-01-15T07:20:37;98071.81;;;-2.32;100.00
75594;BME280;64176;49.156;7.810;2024-01-15T07:23:24;98064.44;;;-2.26;100.00
75594;BME280;64176;49.156;7.810;2024-01-15T07:26:10;98066.34;;;-2.19;100.00
75594;BME280;64176;49.156;7.810;2024-01-15T07:28:57;98054.63;;;-2.17;100.00
75594;BME280;64176;49.156;7.810;2024-01-15T07:31:47;98057.38;;;-2.35;100.00
75594;BME280;64176;49.156;7.810;2024-01-15T07:34:31;98063.50;;;-2.28;100.00
75594;BME280;64176;49.156;7.810;2024-01-15T07:37:15;98062.59;;;-2.30;100.00
75594;BME280;64176;49.156;7.810;2024-01-15T07:40:02;98059.47;;;-2.23;100.00
75594;BME280;64176;49.156;7.810;2024-01-15T07:42:49;98053.56;;;-2.24;100.00
75594;BME280;64176;49.156;7.810;2024-01-15T07:45:33;98044.38;;;-2.20;100.00
75594;BME280;64176;49.156;7.810;2024-01-15T07:48:19;98039.31;;;-2.20;100.00
75594;BME280;64176;49.156;7.810;2024-01-15T07:51:04;98041.22;;;-2.14;100.00
75594;BME280;64176;49.156;7.810;2024-01-15T07:53:48;98039.63;;;-2.12;100.00
75594;BME280;64176;49.156;7.810;2024-01-15T07:56:53;98047.22;;;-2.12;100.00
75594;BME280;64176;49.156;7.810;2024-01-15T07:59:38;98042.41;;;-2.05;100.00
75594;BME280;64176;49.156;7.810;2024-01-15T08:02:22;98045.44;;;-2.15;100.00
75594;BME280;64176;49.156;7.810;2024-01-15T08:05:06;98050.06;;;-2.03;100.00
75594;BME280;64176;49.156;7.810;2024-01-15T08:07:52;98038.25;;;-2.03;100.00
75594;BME280;64176;49.156;7.810;2024-01-15T08:10:36;98025.44;;;-2.07;100.00
75594;BME280;64176;49.156;7.810;2024-01-15T08:13:20;98036.75;;;-1.98;100.00
75594;BME280;64176;49.156;7.810;2024-01-15T08:16:04;98035.31;;;-1.91;100.00
75594;BME280;64176;49.156;7.810;2024-01-15T08:18:48;98035.31;;;-1.91;100.00
75594;BME280;64176;49.156;7.810;2024-01-15T08:21:32;98036.06;;;-1.94;100.00
75594;BME280;64176;49.156;7.810;2024-01-15T08:24:17;98034.69;;;-1.84;100.00
75594;BME280;64176;49.156;7.810;2024-01-15T08:27:01;98037.38;;;-1.79;100.00
75594;BME280;64176;49.156;7.810;2024-01-15T08:29:48;98032.31;;;-1.79;100.00
75594;BME280;64176;49.156;7.810;2024-01-15T08:32:32;98039.63;;;-1.87;100.00
75594;BME280;64176;49.156;7.810;2024-01-15T08:35:17;98038.25;;;-1.79;100.00
75594;BME280;64176;49.156;7.810;2024-01-15T08:38:00;98037.53;;;-1.75;100.00
75594;BME280;64176;49.156;7.810;2024-01-15T08:40:45;98034.81;;;-1.81;100.00
75594;BME280;64176;49.156;7.810;2024-01-15T08:43:28;98041.66;;;-1.78;100.00
75594;BME280;64176;49.156;7.810;2024-01-15T08:46:13;98036.03;;;-1.70;100.00
75594;BME280;64176;49.156;7.810;2024-01-15T08:48:57;98041.16;;;-1.68;100.00
75594;BME280;64176;49.156;7.810;2024-01-15T08:51:41;98030.41;;;-1.61;100.00
75594;BME280;64176;49.156;7.810;2024-01-15T08:54:25;98033.63;;;-1.65;100.00
75594;BME280;64176;49.156;7.810;2024-01-15T08:57:12;98036.25;;;-1.62;100.00
75594;BME280;64176;49.156;7.810;2024-01-15T08:59:58;98025.19;;;-1.66;100.00
75594;BME280;64176;49.156;7.810;2024-01-15T09:02:45;98025.22;;;-1.64;100.00
75594;BME280;64176;49.156;7.810;2024-01-15T09:05:31;98035.63;;;-1.57;100.00
75594;BME280;64176;49.156;7.810;2024-01-15T09:08:15;98033.09;;;-1.57;100.00
75594;BME280;64176;49.156;7.810;2024-01-15T09:11:02;98025.28;;;-1.63;100.00
75594;BME280;64176;49.156;7.810;2024-01-15T09:13:46;98030.69;;;-1.52;100.00
75594;BME280;64176;49.156;7.810;2024-01-15T09:16:33;98030.00;;;-1.48;100.00
75594;BME280;64176;49.156;7.810;2024-01-15T09:19:19;98016.34;;;-1.52;100.00
75594;BME280;64176;49.156;7.810;2024-01-15T09:22:03;98019.63;;;-1.54;100.00
75594;BME280;64176;49.156;7.810;2024-01-15T09:24:47;98013.94;;;-1.49;100.00
75594;BME280;64176;49.156;7.810;2024-01-15T09:27:31;98014.56;;;-1.54;100.00
75594;BME280;64176;49.156;7.810;2024-01-15T09:30:16;98015.38;;;-1.57;100.00
75594;BME280;64176;49.156;7.810;2024-01-15T09:33:00;98020.47;;;-1.55;100.00
75594;BME280;64176;49.156;7.810;2024-01-15T09:35:44;98007.19;;;-1.48;100.00
75594;BME280;64176;49.156;7.810;2024-01-15T09:38:31;98001.16;;;-1.52;100.00
75594;BME280;64176;49.156;7.810;2024-01-15T09:41:15;97994.38;;;-1.53;100.00
75594;BME280;64176;49.156;7.810;2024-01-15T09:43:59;98013.31;;;-1.41;100.00
75594;BME280;64176;49.156;7.810;2024-01-15T09:46:46;97998.31;;;-1.35;100.00
75594;BME280;64176;49.156;7.810;2024-01-15T09:49:36;98010.19;;;-1.34;100.00
75594;BME280;64176;49.156;7.810;2024-01-15T09:52:22;98005.22;;;-1.30;100.00
75594;BME280;64176;49.156;7.810;2024-01-15T09:55:10;97998.44;;;-1.31;100.00
75594;BME280;64176;49.156;7.810;2024-01-15T09:57:56;97995.97;;;-1.29;100.00
75594;BME280;64176;49.156;7.810;2024-01-15T10:00:40;97999.50;;;-1.24;100.00
75594;BME280;64176;49.156;7.810;2024-01-15T10:03:27;98002.53;;;-1.36;100.00
75594;BME280;64176;49.156;7.810;2024-01-15T10:06:15;98003.44;;;-1.34;100.00
75594;BME280;64176;49.156;7.810;2024-01-15T10:09:01;97996.72;;;-1.32;100.00
75594;BME280;64176;49.156;7.810;2024-01-15T10:11:50;97987.75;;;-1.22;100.00
75594;BME280;64176;49.156;7.810;2024-01-15T10:14:37;97984.88;;;-1.33;100.00
75594;BME280;64176;49.156;7.810;2024-01-15T10:17:26;97978.84;;;-1.36;100.00
75594;BME280;64176;49.156;7.810;2024-01-15T10:20:15;97985.81;;;-1.29;100.00
75594;BME280;64176;49.156;7.810;2024-01-15T10:23:01;97974.78;;;-1.31;100.00
75594;BME280;64176;49.156;7.810;2024-01-15T10:25:46;97983.34;;;-1.28;100.00
75594;BME280;64176;49.156;7.810;2024-01-15T10:28:32;97978.53;;;-1.19;100.00
75594;BME280;64176;49.156;7.810;2024-01-15T10:31:16;97974.34;;;-1.18;100.00
75594;BME280;64176;49.156;7.810;2024-01-15T10:34:10;97978.16;;;-1.04;100.00
75594;BME280;64176;49.156;7.810;2024-01-15T10:36:58;97971.38;;;-1.05;100.00
75594;BME280;64176;49.156;7.810;2024-01-15T10:39:46;97970.28;;;-1.13;100.00
75594;BME280;64176;49.156;7.810;2024-01-15T10:42:33;97967.66;;;-1.16;100.00
75594;BME280;64176;49.156;7.810;2024-01-15T10:45:17;97961.91;;;-1.11;100.00
75594;BME280;64176;49.156;7.810;2024-01-15T10:48:05;97958.53;;;-1.11;100.00
75594;BME280;64176;49.156;7.810;2024-01-15T10:50:49;97948.44;;;-1.08;100.00
75594;BME280;64176;49.156;7.810;2024-01-15T10:53:34;97951.25;;;-0.99;100.00
75594;BME280;64176;49.156;7.810;2024-01-15T10:56:22;97939.09;;;-1.11;100.00
75594;BME280;64176;49.156;7.810;2024-01-15T10:59:08;97944.03;;;-1.15;100.00
75594;BME280;64176;49.156;7.810;2024-01-15T11:01:54;97946.72;;;-1.09;100.00
75594;BME280;64176;49.156;7.810;2024-01-15T11:04:41;97936.75;;;-1.04;100.00
75594;BME280;64176;49.156;7.810;2024-01-15T11:07:26;97948.06;;;-0.93;100.00
75594;BME280;64176;49.156;7.810;2024-01-15T11:10:42;97952.34;;;-0.91;100.00
75594;BME280;64176;49.156;7.810;2024-01-15T11:16:20;97954.44;;;-0.78;100.00
75594;BME280;64176;49.156;7.810;2024-01-15T11:19:06;97948.53;;;-0.77;100.00
75594;BME280;64176;49.156;7.810;2024-01-15T11:21:53;97946.84;;;-0.76;100.00
75594;BME280;64176;49.156;7.810;2024-01-15T11:24:40;97947.09;;;-0.68;100.00
75594;BME280;64176;49.156;7.810;2024-01-15T11:27:41;97943.22;;;-0.56;100.00
75594;BME280;64176;49.156;7.810;2024-01-15T11:30:25;97935.66;;;-0.53;100.00
75594;BME280;64176;49.156;7.810;2024-01-15T11:33:32;97951.91;;;-0.48;100.00
75594;BME280;64176;49.156;7.810;2024-01-15T11:36:17;97944.31;;;-0.46;100.00
75594;BME280;64176;49.156;7.810;2024-01-15T11:42:11;97951.22;;;-0.41;100.00
75594;BME280;64176;49.156;7.810;2024-01-15T11:44:58;97954.47;;;-0.46;100.00
75594;BME280;64176;49.156;7.810;2024-01-15T11:48:15;97955.41;;;-0.43;100.00
75594;BME280;64176;49.156;7.810;2024-01-15T11:51:00;97959.03;;;-0.34;100.00
75594;BME280;64176;49.156;7.810;2024-01-15T11:53:48;97958.16;;;-0.35;100.00
75594;BME280;64176;49.156;7.810;2024-01-15T11:56:38;97964.06;;;-0.36;100.00
75594;BME280;64176;49.156;7.810;2024-01-15T11:59:23;97959.03;;;-0.33;100.00
75594;BME280;64176;49.156;7.810;2024-01-15T12:02:10;97969.34;;;-0.28;100.00
75594;BME280;64176;49.156;7.810;2024-01-15T12:05:01;97973.53;;;-0.29;100.00
75594;BME280;64176;49.156;7.810;2024-01-15T12:07:49;97971.97;;;-0.25;100.00
75594;BME280;64176;49.156;7.810;2024-01-15T12:10:39;97973.88;;;-0.17;100.00
75594;BME280;64176;49.156;7.810;2024-01-15T12:13:27;97962.88;;;-0.17;100.00
75594;BME280;64176;49.156;7.810;2024-01-15T12:16:11;97960.13;;;-0.25;100.00
75594;BME280;64176;49.156;7.810;2024-01-15T12:18:56;97964.63;;;-0.15;100.00
75594;BME280;64176;49.156;7.810;2024-01-15T12:21:42;97966.41;;;-0.12;100.00
75594;BME280;64176;49.156;7.810;2024-01-15T12:24:26;97952.84;;;-0.13;100.00
75594;BME280;64176;49.156;7.810;2024-01-15T12:27:10;97966.41;;;-0.11;100.00
75594;BME280;64176;49.156;7.810;2024-01-15T12:29:55;97955.44;;;-0.10;100.00
75594;BME280;64176;49.156;7.810;2024-01-15T12:32:40;97958.78;;;-0.11;100.00
75594;BME280;64176;49.156;7.810;2024-01-15T12:35:27;97962.19;;;-0.10;100.00
75594;BME280;64176;49.156;7.810;2024-01-15T12:38:13;97964.13;;;-0.02;100.00
75594;BME280;64176;49.156;7.810;2024-01-15T12:41:01;97968.31;;;-0.04;100.00
75594;BME280;64176;49.156;7.810;2024-01-15T12:43:45;97953.81;;;-0.08;100.00
75594;BME280;64176;49.156;7.810;2024-01-15T12:46:33;97965.84;;;-0.01;100.00
75594;BME280;64176;49.156;7.810;2024-01-15T12:49:18;97954.78;;;-0.03;100.00
75594;BME280;64176;49.156;7.810;2024-01-15T12:52:02;97955.66;;;-0.02;100.00
75594;BME280;64176;49.156;7.810;2024-01-15T12:54:46;97949.00;;;0.03;100.00
75594;BME280;64176;49.156;7.810;2024-01-15T12:57:34;97964.38;;;0.08;100.00
75594;BME280;64176;49.156;7.810;2024-01-15T13:00:23;97974.47;;;0.06;100.00
75594;BME280;64176;49.156;7.810;2024-01-15T13:03:09;97978.56;;;0.01;100.00
75594;BME280;64176;49.156;7.810;2024-01-15T13:05:53;97975.03;;;-0.06;100.00
75594;BME280;64176;49.156;7.810;2024-01-15T13:08:39;97983.63;;;-0.01;100.00
75594;BME280;64176;49.156;7.810;2024-01-15T13:11:27;97986.03;;;-0.05;100.00
75594;BME280;64176;49.156;7.810;2024-01-15T13:14:16;97992.88;;;-0.03;100.00
75594;BME280;64176;49.156;7.810;2024-01-15T13:17:00;97996.19;;;-0.05;100.00
75594;BME280;64176;49.156;7.810;2024-01-15T13:19:45;97990.22;;;-0.07;100.00
75594;BME280;64176;49.156;7.810;2024-01-15T13:22:29;97996.16;;;-0.07;100.00
75594;BME280;64176;49.156;7.810;2024-01-15T13:25:16;97990.22;;;-0.07;100.00
75594;BME280;64176;49.156;7.810;2024-01-15T13:28:00;97989.25;;;-0.11;100.00
75594;BME280;64176;49.156;7.810;2024-01-15T13:30:46;97995.38;;;-0.04;100.00
75594;BME280;64176;49.156;7.810;2024-01-15T13:33:31;97993.63;;;-0.07;100.00
75594;BME280;64176;49.156;7.810;2024-01-15T13:36:15;97997.19;;;0.00;100.00
75594;BME280;64176;49.156;7.810;2024-01-15T13:38:59;98000.28;;;-0.10;100.00
75594;BME280;64176;49.156;7.810;2024-01-15T13:41:46;98002.03;;;-0.08;100.00
75594;BME280;64176;49.156;7.810;2024-01-15T13:44:30;98006.50;;;-0.01;100.00
75594;BME280;64176;49.156;7.810;2024-01-15T13:47:17;98001.38;;;-0.02;100.00
75594;BME280;64176;49.156;7.810;2024-01-15T13:50:04;98014.91;;;-0.02;100.00
75594;BME280;64176;49.156;7.810;2024-01-15T13:52:51;98025.31;;;0.08;100.00
75594;BME280;64176;49.156;7.810;2024-01-15T13:55:38;98016.66;;;0.01;100.00
75594;BME280;64176;49.156;7.810;2024-01-15T13:58:26;98033.66;;;0.04;100.00
75594;BME280;64176;49.156;7.810;2024-01-15T14:01:10;98036.41;;;0.11;100.00
75594;BME280;64176;49.156;7.810;2024-01-15T14:03:57;98033.66;;;0.04;100.00
75594;BME280;64176;49.156;7.810;2024-01-15T14:06:42;98041.28;;;0.04;100.00
75594;BME280;64176;49.156;7.810;2024-01-15T14:09:28;98049.91;;;0.09;100.00
75594;BME280;64176;49.156;7.810;2024-01-15T14:12:18;98049.00;;;0.07;100.00
75594;BME280;64176;49.156;7.810;2024-01-15T14:15:02;98062.59;;;0.09;100.00
75594;BME280;64176;49.156;7.810;2024-01-15T14:17:47;98057.34;;;0.03;100.00
75594;BME280;64176;49.156;7.810;2024-01-15T14:20:34;98055.63;;;0.02;100.00
75594;BME280;64176;49.156;7.810;2024-01-15T14:23:21;98052.31;;;0.04;100.00
75594;BME280;64176;49.156;7.810;2024-01-15T14:26:05;98065.06;;;0.06;100.00
75594;BME280;64176;49.156;7.810;2024-01-15T14:28:49;98067.50;;;0.03;100.00
75594;BME280;64176;49.156;7.810;2024-01-15T14:31:33;98076.03;;;0.05;100.00
75594;BME280;64176;49.156;7.810;2024-01-15T14:34:17;98071.84;;;0.07;100.00